sensor_id;sensor_type;location;lat;lon;timestamp;temperature;humidity
18446;DHT22;9352;50.888;4.466;2023-02-15T00:01:06;4.40;99.90
18446;DHT22;9352;50.888;4.466;2023-02-15T00:03:33;4.40;99.90
18446;DHT22;9352;50.888;4.466;2023-02-15T00:06:01;4.30;99.90
18446;DHT22;9352;50.888;4.466;2023-02-15T00:08:28;4.40;99.90
18446;DHT22;9352;50.888;4.466;2023-02-15T00:11:04;4.30;99.90
18446;DHT22;9352;50.888;4.466;2023-02-15T00:13:31;4.30;99.90
18446;DHT22;9352;50.888;4.466;2023-02-15T00:16:01;4.30;99.90
18446;DHT22;9352;50.888;4.466;2023-02-15T00:18:28;4.30;99.90
18446;DHT22;9352;50.888;4.466;2023-02-15T00:20:55;4.20;99.90
18446;DHT22;9352;50.888;4.466;2023-02-15T00:23:23;4.20;99.90
18446;DHT22;9352;50.888;4.466;2023-02-15T00:25:50;4.20;99.90
18446;DHT22;9352;50.888;4.466;2023-02-15T00:28:17;4.10;99.90
18446;DHT22;9352;50.888;4.466;2023-02-15T00:30:44;4.10;99.90
18446;DHT22;9352;50.888;4.466;2023-02-15T00:33:11;4.10;99.90
18446;DHT22;9352;50.888;4.466;2023-02-15T00:35:38;4.10;99.90
18446;DHT22;9352;50.888;4.466;2023-02-15T00:38:05;4.10;99.90
18446;DHT22;9352;50.888;4.466;2023-02-15T00:40:33;4.10;99.90
18446;DHT22;9352;50.888;4.466;2023-02-15T00:43:00;4.10;99.90
18446;DHT22;9352;50.888;4.466;2023-02-15T00:45:27;4.10;99.90
18446;DHT22;9352;50.888;4.466;2023-02-15T00:47:53;4.10;99.90
18446;DHT22;9352;50.888;4.466;2023-02-15T00:50:20;4.10;99.90
18446;DHT22;9352;50.888;4.466;2023-02-15T00:52:47;4.10;99.90
18446;DHT22;9352;50.888;4.466;2023-02-15T00:55:14;4.00;99.90
18446;DHT22;9352;50.888;4.466;2023-02-15T00:57:42;4.00;99.90
18446;DHT22;9352;50.888;4.466;2023-02-15T01:00:10;4.00;99.90
18446;DHT22;9352;50.888;4.466;2023-02-15T01:02:37;3.90;99.90
18446;DHT22;9352;50.888;4.466;2023-02-15T01:05:05;3.90;99.90
18446;DHT22;9352;50.888;4.466;2023-02-15T01:07:32;3.90;99.90
18446;DHT22;9352;50.888;4.466;2023-02-15T01:09:59;3.80;99.90
18446;DHT22;9352;50.888;4.466;2023-02-15T01:12:26;3.80;99.90
18446;DHT22;9352;50.888;4.466;2023-02-15T01:14:54;3.80;99.90
18446;DHT22;9352;50.888;4.466;2023-02-15T01:17:21;3.80;99.90
18446;DHT22;9352;50.888;4.466;2023-02-15T01:19:47;3.80;99.90
18446;DHT22;9352;50.888;4.466;2023-02-15T01:22:14;3.70;99.90
18446;DHT22;9352;50.888;4.466;2023-02-15T01:24:41;3.70;99.90
18446;DHT22;9352;50.888;4.466;2023-02-15T01:27:09;3.70;99.90
18446;DHT22;9352;50.888;4.466;2023-02-15T01:29:36;3.60;99.90
18446;DHT22;9352;50.888;4.466;2023-02-15T01:32:05;3.70;99.90
18446;DHT22;9352;50.888;4.466;2023-02-15T01:34:32;3.60;99.90
18446;DHT22;9352;50.888;4.466;2023-02-15T01:36:59;3.60;99.90
18446;DHT22;9352;50.888;4.466;2023-02-15T01:39:26;3.60;99.90
18446;DHT22;9352;50.888;4.466;2023-02-15T01:41:53;3.60;99.90
18446;DHT22;9352;50.888;4.466;2023-02-15T01:44:51;3.60;99.90
18446;DHT22;9352;50.888;4.466;2023-02-15T01:47:22;3.60;99.90
18446;DHT22;9352;50.888;4.466;2023-02-15T01:49:58;3.50;99.90
18446;DHT22;9352;50.888;4.466;2023-02-15T01:52:25;3.50;99.90
18446;DHT22;9352;50.888;4.466;2023-02-15T01:54:52;3.50;99.90
18446;DHT22;9352;50.888;4.466;2023-02-15T01:57:22;3.50;99.90
18446;DHT22;9352;50.888;4.466;2023-02-15T01:59:54;3.40;99.90
18446;DHT22;9352;50.888;4.466;2023-02-15T02:02:24;3.40;99.90
18446;DHT22;9352;50.888;4.466;2023-02-15T02:04:52;3.40;99.90
18446;DHT22;9352;50.888;4.466;2023-02-15T02:07:23;3.40;99.90
18446;DHT22;9352;50.888;4.466;2023-02-15T02:09:50;3.40;99.90
18446;DHT22;9352;50.888;4.466;2023-02-15T02:12:18;3.40;99.90
18446;DHT22;9352;50.888;4.466;2023-02-15T02:14:48;3.40;99.90
18446;DHT22;9352;50.888;4.466;2023-02-15T02:17:18;3.30;99.90
18446;DHT22;9352;50.888;4.466;2023-02-15T02:20:20;3.40;99.90
18446;DHT22;9352;50.888;4.466;2023-02-15T02:23:19;3.30;99.90
18446;DHT22;9352;50.888;4.466;2023-02-15T02:26:16;3.30;99.90
18446;DHT22;9352;50.888;4.466;2023-02-15T02:31:47;3.20;99.90
18446;DHT22;9352;50.888;4.466;2023-02-15T02:34:26;3.20;99.90
18446;DHT22;9352;50.888;4.466;2023-02-15T02:37:00;3.20;99.90
18446;DHT22;9352;50.888;4.466;2023-02-15T02:39:36;3.20;99.90
18446;DHT22;9352;50.888;4.466;2023-02-15T02:42:10;3.20;99.90
18446;DHT22;9352;50.888;4.466;2023-02-15T02:44:42;3.20;99.90
18446;DHT22;9352;50.888;4.466;2023-02-15T02:47:12;3.20;99.90
18446;DHT22;9352;50.888;4.466;2023-02-15T02:49:43;3.10;99.90
18446;DHT22;9352;50.888;4.466;2023-02-15T02:52:35;3.20;99.90
18446;DHT22;9352;50.888;4.466;2023-02-15T02:55:04;3.10;99.90
18446;DHT22;9352;50.888;4.466;2023-02-15T02:57:32;3.10;99.90
18446;DHT22;9352;50.888;4.466;2023-02-15T03:00:02;3.10;99.90
18446;DHT22;9352;50.888;4.466;2023-02-15T03:02:33;3.00;99.90
18446;DHT22;9352;50.888;4.466;2023-02-15T03:05:04;3.00;99.90
18446;DHT22;9352;50.888;4.466;2023-02-15T03:07:34;3.00;99.90
18446;DHT22;9352;50.888;4.466;2023-02-15T03:10:04;2.90;99.90
18446;DHT22;9352;50.888;4.466;2023-02-15T03:12:49;3.00;99.90
18446;DHT22;9352;50.888;4.466;2023-02-15T03:15:20;3.00;99.90
18446;DHT22;9352;50.888;4.466;2023-02-15T03:17:51;2.90;99.90
18446;DHT22;9352;50.888;4.466;2023-02-15T03:20:24;2.90;99.90
18446;DHT22;9352;50.888;4.466;2023-02-15T03:22:55;2.90;99.90
18446;DHT22;9352;50.888;4.466;2023-02-15T03:25:26;2.80;99.90
18446;DHT22;9352;50.888;4.466;2023-02-15T03:27:55;2.90;99.90
18446;DHT22;9352;50.888;4.466;2023-02-15T03:30:26;2.90;99.90
18446;DHT22;9352;50.888;4.466;2023-02-15T03:32:55;2.80;99.90
18446;DHT22;9352;50.888;4.466;2023-02-15T03:35:26;2.80;99.90
18446;DHT22;9352;50.888;4.466;2023-02-15T03:37:59;2.80;99.90
18446;DHT22;9352;50.888;4.466;2023-02-15T03:40:30;2.80;99.90
18446;DHT22;9352;50.888;4.466;2023-02-15T03:43:19;2.80;99.90
18446;DHT22;9352;50.888;4.466;2023-02-15T03:45:52;2.80;99.90
18446;DHT22;9352;50.888;4.466;2023-02-15T03:48:24;2.70;99.90
18446;DHT22;9352;50.888;4.466;2023-02-15T03:50:55;2.70;99.90
18446;DHT22;9352;50.888;4.466;2023-02-15T03:53:42;2.70;99.90
18446;DHT22;9352;50.888;4.466;2023-02-15T03:56:10;2.70;99.90
18446;DHT22;9352;50.888;4.466;2023-02-15T03:58:37;2.70;99.90
18446;DHT22;9352;50.888;4.466;2023-02-15T04:01:26;2.70;99.90
18446;DHT22;9352;50.888;4.466;2023-02-15T04:04:15;2.60;99.90
18446;DHT22;9352;50.888;4.466;2023-02-15T04:06:46;2.60;99.90
18446;DHT22;9352;50.888;4.466;2023-02-15T04:09:13;2.60;99.90
18446;DHT22;9352;50.888;4.466;2023-02-15T04:11:57;2.60;99.90
18446;DHT22;9352;50.888;4.466;2023-02-15T04:14:25;2.60;99.90
18446;DHT22;9352;50.888;4.466;2023-02-15T04:17:09;2.60;99.90
18446;DHT22;9352;50.888;4.466;2023-02-15T04:19:36;2.60;99.90
18446;DHT22;9352;50.888;4.466;2023-02-15T04:22:22;2.60;99.90
18446;DHT22;9352;50.888;4.466;2023-02-15T04:25:06;2.50;99.90
18446;DHT22;9352;50.888;4.466;2023-02-15T04:27:36;2.60;99.90
18446;DHT22;9352;50.888;4.466;2023-02-15T04:30:03;2.60;99.90
18446;DHT22;9352;50.888;4.466;2023-02-15T04:32:30;2.60;99.90
18446;DHT22;9352;50.888;4.466;2023-02-15T04:34:57;2.60;99.90
18446;DHT22;9352;50.888;4.466;2023-02-15T04:37:25;2.60;99.90
18446;DHT22;9352;50.888;4.466;2023-02-15T04:39:52;2.60;99.90
18446;DHT22;9352;50.888;4.466;2023-02-15T04:42:19;2.60;99.90
18446;DHT22;9352;50.888;4.466;2023-02-15T04:44:46;2.70;99.90
18446;DHT22;9352;50.888;4.466;2023-02-15T04:47:13;2.60;99.90
18446;DHT22;9352;50.888;4.466;2023-02-15T04:49:40;2.60;99.90
18446;DHT22;9352;50.888;4.466;2023-02-15T04:52:06;2.60;99.90
18446;DHT22;9352;50.888;4.466;2023-02-15T04:54:35;2.60;99.90
18446;DHT22;9352;50.888;4.466;2023-02-15T04:57:02;2.50;99.90
18446;DHT22;9352;50.888;4.466;2023-02-15T04:59:29;2.60;99.90
18446;DHT22;9352;50.888;4.466;2023-02-15T05:01:55;2.50;99.90
18446;DHT22;9352;50.888;4.466;2023-02-15T05:04:23;2.60;99.90
18446;DHT22;9352;50.888;4.466;2023-02-15T05:06:49;2.60;99.90
18446;DHT22;9352;50.888;4.466;2023-02-15T05:09:16;2.60;99.90
18446;DHT22;9352;50.888;4.466;2023-02-15T05:11:45;2.60;99.90
18446;DHT22;9352;50.888;4.466;2023-02-15T05:14:12;2.60;99.90
18446;DHT22;9352;50.888;4.466;2023-02-15T05:16:39;2.60;99.90
18446;DHT22;9352;50.888;4.466;2023-02-15T05:19:06;2.60;99.90
18446;DHT22;9352;50.888;4.466;2023-02-15T05:21:33;2.60;99.90
18446;DHT22;9352;50.888;4.466;2023-02-15T05:24:00;2.60;99.90
18446;DHT22;9352;50.888;4.466;2023-02-15T05:26:48;2.60;99.90
18446;DHT22;9352;50.888;4.466;2023-02-15T05:29:33;2.60;99.90
18446;DHT22;9352;50.888;4.466;2023-02-15T05:31:59;2.60;99.90
18446;DHT22;9352;50.888;4.466;2023-02-15T05:34:27;2.60;99.90
18446;DHT22;9352;50.888;4.466;2023-02-15T05:36:54;2.60;99.90
18446;DHT22;9352;50.888;4.466;2023-02-15T05:39:21;2.60;99.90
18446;DHT22;9352;50.888;4.466;2023-02-15T05:41:49;2.60;99.90
18446;DHT22;9352;50.888;4.466;2023-02-15T05:44:16;2.60;99.90
18446;DHT22;9352;50.888;4.466;2023-02-15T05:46:43;2.60;99.90
18446;DHT22;9352;50.888;4.466;2023-02-15T05:49:10;2.60;99.90
18446;DHT22;9352;50.888;4.466;2023-02-15T05:51:37;2.60;99.90
18446;DHT22;9352;50.888;4.466;2023-02-15T05:54:04;2.60;99.90
18446;DHT22;9352;50.888;4.466;2023-02-15T05:56:31;2.60;99.90
18446;DHT22;9352;50.888;4.466;2023-02-15T05:58:59;2.60;99.90
18446;DHT22;9352;50.888;4.466;2023-02-15T06:01:26;2.60;99.90
18446;DHT22;9352;50.888;4.466;2023-02-15T06:03:53;2.60;99.90
18446;DHT22;9352;50.888;4.466;2023-02-15T06:06:21;2.60;99.90
18446;DHT22;9352;50.888;4.466;2023-02-15T06:08:48;2.60;99.90
18446;DHT22;9352;50.888;4.466;2023-02-15T06:11:15;2.60;99.90
18446;DHT22;9352;50.888;4.466;2023-02-15T06:13:42;2.60;99.90
18446;DHT22;9352;50.888;4.466;2023-02-15T06:16:10;2.50;99.90
18446;DHT22;9352;50.888;4.466;2023-02-15T06:18:37;2.60;99.90
18446;DHT22;9352;50.888;4.466;2023-02-15T06:21:04;2.60;99.90
18446;DHT22;9352;50.888;4.466;2023-02-15T06:23:31;2.50;99.90
18446;DHT22;9352;50.888;4.466;2023-02-15T06:25:57;2.50;99.90
18446;DHT22;9352;50.888;4.466;2023-02-15T06:28:24;2.50;99.90
18446;DHT22;9352;50.888;4.466;2023-02-15T06:30:52;2.50;99.90
18446;DHT22;9352;50.888;4.466;2023-02-15T06:33:20;2.50;99.90
18446;DHT22;9352;50.888;4.466;2023-02-15T06:35:48;2.50;99.90
18446;DHT22;9352;50.888;4.466;2023-02-15T06:38:14;2.60;99.90
18446;DHT22;9352;50.888;4.466;2023-02-15T06:40:41;2.50;99.90
18446;DHT22;9352;50.888;4.466;2023-02-15T06:43:08;2.50;99.90
18446;DHT22;9352;50.888;4.466;2023-02-15T06:45:35;2.50;99.90
18446;DHT22;9352;50.888;4.466;2023-02-15T06:48:02;2.50;99.90
18446;DHT22;9352;50.888;4.466;2023-02-15T06:50:33;2.50;99.90
18446;DHT22;9352;50.888;4.466;2023-02-15T06:53:00;2.50;99.90
18446;DHT22;9352;50.888;4.466;2023-02-15T06:55:27;2.50;99.90
18446;DHT22;9352;50.888;4.466;2023-02-15T06:57:54;2.50;99.90
18446;DHT22;9352;50.888;4.466;2023-02-15T07:00:22;2.50;99.90
18446;DHT22;9352;50.888;4.466;2023-02-15T07:02:53;2.50;99.90
18446;DHT22;9352;50.888;4.466;2023-02-15T07:05:22;2.50;99.90
18446;DHT22;9352;50.888;4.466;2023-02-15T07:07:50;2.50;99.90
18446;DHT22;9352;50.888;4.466;2023-02-15T07:10:17;2.50;99.90
18446;DHT22;9352;50.888;4.466;2023-02-15T07:12:44;2.50;99.90
18446;DHT22;9352;50.888;4.466;2023-02-15T07:15:13;2.60;99.90
18446;DHT22;9352;50.888;4.466;2023-02-15T07:17:40;2.60;99.90
18446;DHT22;9352;50.888;4.466;2023-02-15T07:20:13;2.60;99.90
18446;DHT22;9352;50.888;4.466;2023-02-15T07:22:40;2.70;99.90
18446;DHT22;9352;50.888;4.466;2023-02-15T07:25:10;2.80;99.90
18446;DHT22;9352;50.888;4.466;2023-02-15T07:27:38;2.80;99.90
18446;DHT22;9352;50.888;4.466;2023-02-15T07:30:07;2.90;99.90
18446;DHT22;9352;50.888;4.466;2023-02-15T07:32:35;3.00;99.90
18446;DHT22;9352;50.888;4.466;2023-02-15T07:35:02;3.00;99.90
18446;DHT22;9352;50.888;4.466;2023-02-15T07:37:29;3.10;99.90
18446;DHT22;9352;50.888;4.466;2023-02-15T07:39:56;3.10;99.90
18446;DHT22;9352;50.888;4.466;2023-02-15T07:42:24;3.20;99.90
18446;DHT22;9352;50.888;4.466;2023-02-15T07:44:51;3.30;99.90
18446;DHT22;9352;50.888;4.466;2023-02-15T07:47:18;3.30;99.90
18446;DHT22;9352;50.888;4.466;2023-02-15T07:49:45;3.40;99.90
18446;DHT22;9352;50.888;4.466;2023-02-15T07:52:13;3.50;99.90
18446;DHT22;9352;50.888;4.466;2023-02-15T07:54:40;3.50;99.90
18446;DHT22;9352;50.888;4.466;2023-02-15T07:57:07;3.60;99.90
18446;DHT22;9352;50.888;4.466;2023-02-15T07:59:35;3.70;99.90
18446;DHT22;9352;50.888;4.466;2023-02-15T08:02:02;3.70;99.90
18446;DHT22;9352;50.888;4.466;2023-02-15T08:04:29;3.80;99.90
18446;DHT22;9352;50.888;4.466;2023-02-15T08:06:56;3.90;99.90
18446;DHT22;9352;50.888;4.466;2023-02-15T08:09:23;4.00;99.90
18446;DHT22;9352;50.888;4.466;2023-02-15T08:11:50;4.10;99.90
18446;DHT22;9352;50.888;4.466;2023-02-15T08:14:18;4.10;99.90
18446;DHT22;9352;50.888;4.466;2023-02-15T08:16:48;4.20;99.90
18446;DHT22;9352;50.888;4.466;2023-02-15T08:19:17;4.30;99.90
18446;DHT22;9352;50.888;4.466;2023-02-15T08:21:46;4.50;99.90
18446;DHT22;9352;50.888;4.466;2023-02-15T08:24:15;4.70;99.90
18446;DHT22;9352;50.888;4.466;2023-02-15T08:26:43;5.00;99.90
18446;DHT22;9352;50.888;4.466;2023-02-15T08:29:11;5.30;99.90
18446;DHT22;9352;50.888;4.466;2023-02-15T08:31:38;5.50;99.90
18446;DHT22;9352;50.888;4.466;2023-02-15T08:34:08;5.90;99.90
18446;DHT22;9352;50.888;4.466;2023-02-15T08:36:36;6.20;99.90
18446;DHT22;9352;50.888;4.466;2023-02-15T08:39:05;6.60;99.90
18446;DHT22;9352;50.888;4.466;2023-02-15T08:41:33;6.70;99.90
18446;DHT22;9352;50.888;4.466;2023-02-15T08:44:02;6.90;99.90
18446;DHT22;9352;50.888;4.466;2023-02-15T08:46:32;7.00;99.90
18446;DHT22;9352;50.888;4.466;2023-02-15T08:49:00;7.00;99.90
18446;DHT22;9352;50.888;4.466;2023-02-15T08:51:30;7.00;99.90
18446;DHT22;9352;50.888;4.466;2023-02-15T08:53:59;7.00;99.90
18446;DHT22;9352;50.888;4.466;2023-02-15T08:56:27;7.00;99.90
18446;DHT22;9352;50.888;4.466;2023-02-15T08:58:55;7.00;99.90
18446;DHT22;9352;50.888;4.466;2023-02-15T09:01:24;7.00;99.90
18446;DHT22;9352;50.888;4.466;2023-02-15T09:03:54;7.00;99.90
18446;DHT22;9352;50.888;4.466;2023-02-15T09:06:22;7.10;99.90
18446;DHT22;9352;50.888;4.466;2023-02-15T09:08:51;7.20;99.90
18446;DHT22;9352;50.888;4.466;2023-02-15T09:11:20;7.30;99.90
18446;DHT22;9352;50.888;4.466;2023-02-15T09:13:49;7.30;99.90
18446;DHT22;9352;50.888;4.466;2023-02-15T09:16:18;7.40;99.90
18446;DHT22;9352;50.888;4.466;2023-02-15T09:18:45;7.40;99.90
18446;DHT22;9352;50.888;4.466;2023-02-15T09:21:13;7.50;99.90
18446;DHT22;9352;50.888;4.466;2023-02-15T09:23:41;7.70;99.90
18446;DHT22;9352;50.888;4.466;2023-02-15T09:26:12;7.80;99.90
18446;DHT22;9352;50.888;4.466;2023-02-15T09:28:39;7.90;99.90
18446;DHT22;9352;50.888;4.466;2023-02-15T09:31:08;8.00;99.90
18446;DHT22;9352;50.888;4.466;2023-02-15T09:33:35;8.20;99.90
18446;DHT22;9352;50.888;4.466;2023-02-15T09:36:03;8.30;99.90
18446;DHT22;9352;50.888;4.466;2023-02-15T09:38:30;8.40;99.90
18446;DHT22;9352;50.888;4.466;2023-02-15T09:41:08;8.60;99.90
18446;DHT22;9352;50.888;4.466;2023-02-15T09:43:46;8.70;99.90
18446;DHT22;9352;50.888;4.466;2023-02-15T09:46:28;8.90;99.90
18446;DHT22;9352;50.888;4.466;2023-02-15T09:48:57;9.00;99.90
18446;DHT22;9352;50.888;4.466;2023-02-15T09:55:02;9.40;99.90
18446;DHT22;9352;50.888;4.466;2023-02-15T09:57:37;9.70;99.90
18446;DHT22;9352;50.888;4.466;2023-02-15T10:00:16;9.90;99.90
18446;DHT22;9352;50.888;4.466;2023-02-15T10:03:03;10.10;99.90
18446;DHT22;9352;50.888;4.466;2023-02-15T10:05:38;10.20;99.90
18446;DHT22;9352;50.888;4.466;2023-02-15T10:11:16;10.50;99.90
18446;DHT22;9352;50.888;4.466;2023-02-15T10:14:12;10.70;99.90
18446;DHT22;9352;50.888;4.466;2023-02-15T10:16:49;10.90;99.90
18446;DHT22;9352;50.888;4.466;2023-02-15T10:19:23;11.10;99.90
18446;DHT22;9352;50.888;4.466;2023-02-15T10:22:01;11.20;99.90
18446;DHT22;9352;50.888;4.466;2023-02-15T10:24:39;11.30;99.90
18446;DHT22;9352;50.888;4.466;2023-02-15T10:27:12;11.40;99.90
18446;DHT22;9352;50.888;4.466;2023-02-15T10:29:47;11.50;99.90
18446;DHT22;9352;50.888;4.466;2023-02-15T10:32:22;11.50;99.90
18446;DHT22;9352;50.888;4.466;2023-02-15T10:34:51;11.50;99.90
18446;DHT22;9352;50.888;4.466;2023-02-15T10:37:46;11.70;99.90
18446;DHT22;9352;50.888;4.466;2023-02-15T10:40:25;11.90;99.90
18446;DHT22;9352;50.888;4.466;2023-02-15T10:43:20;12.00;99.90
18446;DHT22;9352;50.888;4.466;2023-02-15T10:45:56;12.20;99.90
18446;DHT22;9352;50.888;4.466;2023-02-15T10:48:54;12.40;99.90
18446;DHT22;9352;50.888;4.466;2023-02-15T10:51:31;12.60;99.90
18446;DHT22;9352;50.888;4.466;2023-02-15T10:54:09;12.70;99.90
18446;DHT22;9352;50.888;4.466;2023-02-15T10:56:43;12.90;99.90
18446;DHT22;9352;50.888;4.466;2023-02-15T10:59:26;13.10;99.90
18446;DHT22;9352;50.888;4.466;2023-02-15T11:02:02;13.30;99.90
18446;DHT22;9352;50.888;4.466;2023-02-15T11:04:53;13.30;99.90
18446;DHT22;9352;50.888;4.466;2023-02-15T11:07:25;13.40;99.90
18446;DHT22;9352;50.888;4.466;2023-02-15T11:09:56;13.40;99.90
18446;DHT22;9352;50.888;4.466;2023-02-15T11:12:28;13.50;99.90
18446;DHT22;9352;50.888;4.466;2023-02-15T11:14:58;13.50;99.90
18446;DHT22;9352;50.888;4.466;2023-02-15T11:17:35;13.60;99.90
18446;DHT22;9352;50.888;4.466;2023-02-15T11:20:14;13.70;99.90
18446;DHT22;9352;50.888;4.466;2023-02-15T11:22:48;13.80;99.90
18446;DHT22;9352;50.888;4.466;2023-02-15T11:25:19;13.90;99.90
18446;DHT22;9352;50.888;4.466;2023-02-15T11:27:49;14.00;99.90
18446;DHT22;9352;50.888;4.466;2023-02-15T11:30:21;14.10;99.90
18446;DHT22;9352;50.888;4.466;2023-02-15T11:32:51;13.90;99.90
18446;DHT22;9352;50.888;4.466;2023-02-15T11:35:26;13.90;99.90
18446;DHT22;9352;50.888;4.466;2023-02-15T11:37:58;14.00;99.90
18446;DHT22;9352;50.888;4.466;2023-02-15T11:40:30;14.20;99.90
18446;DHT22;9352;50.888;4.466;2023-02-15T11:43:01;14.30;99.90
18446;DHT22;9352;50.888;4.466;2023-02-15T11:45:31;14.50;99.90
18446;DHT22;9352;50.888;4.466;2023-02-15T11:48:00;14.80;99.90
18446;DHT22;9352;50.888;4.466;2023-02-15T11:50:31;15.00;99.90
18446;DHT22;9352;50.888;4.466;2023-02-15T11:53:03;15.00;99.90
18446;DHT22;9352;50.888;4.466;2023-02-15T11:55:31;14.80;99.90
18446;DHT22;9352;50.888;4.466;2023-02-15T11:58:05;14.60;99.90
18446;DHT22;9352;50.888;4.466;2023-02-15T12:00:37;14.50;99.90
18446;DHT22;9352;50.888;4.466;2023-02-15T12:03:12;14.50;99.90
18446;DHT22;9352;50.888;4.466;2023-02-15T12:05:45;14.50;99.90
18446;DHT22;9352;50.888;4.466;2023-02-15T12:08:16;14.40;99.90
18446;DHT22;9352;50.888;4.466;2023-02-15T12:10:58;14.40;99.90
18446;DHT22;9352;50.888;4.466;2023-02-15T12:13:27;14.40;99.90
18446;DHT22;9352;50.888;4.466;2023-02-15T12:15:56;14.40;99.90
18446;DHT22;9352;50.888;4.466;2023-02-15T12:18:35;14.30;99.90
18446;DHT22;9352;50.888;4.466;2023-02-15T12:21:06;14.30;99.90
18446;DHT22;9352;50.888;4.466;2023-02-15T12:23:39;14.20;99.90
18446;DHT22;9352;50.888;4.466;2023-02-15T12:26:07;14.10;99.90
18446;DHT22;9352;50.888;4.466;2023-02-15T12:28:36;14.10;99.90
18446;DHT22;9352;50.888;4.466;2023-02-15T12:31:09;14.10;99.90
18446;DHT22;9352;50.888;4.466;2023-02-15T12:33:41;14.10;99.90
18446;DHT22;9352;50.888;4.466;2023-02-15T12:36:17;14.00;99.90
18446;DHT22;9352;50.888;4.466;2023-02-15T12:39:02;14.00;99.90
18446;DHT22;9352;50.888;4.466;2023-02-15T12:41:30;14.00;99.90
18446;DHT22;9352;50.888;4.466;2023-02-15T12:44:05;14.10;99.90
18446;DHT22;9352;50.888;4.466;2023-02-15T12:46:32;14.10;99.90
18446;DHT22;9352;50.888;4.466;2023-02-15T12:49:10;14.10;99.90
18446;DHT22;9352;50.888;4.466;2023-02-15T12:51:46;14.30;99.90
18446;DHT22;9352;50.888;4.466;2023-02-15T12:54:35;14.40;99.90
18446;DHT22;9352;50.888;4.466;2023-02-15T12:57:25;14.50;99.90
18446;DHT22;9352;50.888;4.466;2023-02-15T12:59:54;14.50;99.90
18446;DHT22;9352;50.888;4.466;2023-02-15T13:02:25;14.50;99.90
18446;DHT22;9352;50.888;4.466;2023-02-15T13:04:54;14.50;99.90
18446;DHT22;9352;50.888;4.466;2023-02-15T13:07:25;14.50;99.90
18446;DHT22;9352;50.888;4.466;2023-02-15T13:09:56;14.50;99.90
18446;DHT22;9352;50.888;4.466;2023-02-15T13:12:25;14.40;99.90
18446;DHT22;9352;50.888;4.466;2023-02-15T13:14:54;14.40;99.90
18446;DHT22;9352;50.888;4.466;2023-02-15T13:17:24;14.30;99.90
18446;DHT22;9352;50.888;4.466;2023-02-15T13:19:57;14.50;99.90
18446;DHT22;9352;50.888;4.466;2023-02-15T13:22:31;14.50;99.90
18446;DHT22;9352;50.888;4.466;2023-02-15T13:25:03;14.60;99.90
18446;DHT22;9352;50.888;4.466;2023-02-15T13:27:34;14.70;99.90
18446;DHT22;9352;50.888;4.466;2023-02-15T13:30:04;14.80;99.90
18446;DHT22;9352;50.888;4.466;2023-02-15T13:32:37;14.90;99.90
18446;DHT22;9352;50.888;4.466;2023-02-15T13:35:13;14.90;99.90
18446;DHT22;9352;50.888;4.466;2023-02-15T13:37:59;15.00;99.90
18446;DHT22;9352;50.888;4.466;2023-02-15T13:40:34;15.00;99.90
18446;DHT22;9352;50.888;4.466;2023-02-15T13:43:13;14.90;99.90
18446;DHT22;9352;50.888;4.466;2023-02-15T13:45:55;14.90;99.90
18446;DHT22;9352;50.888;4.466;2023-02-15T13:48:32;14.90;99.90
18446;DHT22;9352;50.888;4.466;2023-02-15T13:51:11;14.90;99.90
18446;DHT22;9352;50.888;4.466;2023-02-15T13:53:50;14.90;99.90
18446;DHT22;9352;50.888;4.466;2023-02-15T13:56:28;14.90;99.90
18446;DHT22;9352;50.888;4.466;2023-02-15T13:59:15;14.90;99.90
18446;DHT22;9352;50.888;4.466;2023-02-15T14:01:47;14.90;99.90
18446;DHT22;9352;50.888;4.466;2023-02-15T14:04:36;14.90;99.90
18446;DHT22;9352;50.888;4.466;2023-02-15T14:07:19;14.90;99.90
18446;DHT22;9352;50.888;4.466;2023-02-15T14:09:57;14.90;99.90
18446;DHT22;9352;50.888;4.466;2023-02-15T14:12:34;14.90;99.90
18446;DHT22;9352;50.888;4.466;2023-02-15T14:15:10;14.90;99.90
18446;DHT22;9352;50.888;4.466;2023-02-15T14:17:50;14.90;99.90
18446;DHT22;9352;50.888;4.466;2023-02-15T14:20:23;15.00;99.90
18446;DHT22;9352;50.888;4.466;2023-02-15T14:23:01;15.00;99.90
18446;DHT22;9352;50.888;4.466;2023-02-15T14:25:38;14.90;99.90
18446;DHT22;9352;50.888;4.466;2023-02-15T14:28:11;14.90;99.90
18446;DHT22;9352;50.888;4.466;2023-02-15T14:30:42;14.70;99.90
18446;DHT22;9352;50.888;4.466;2023-02-15T14:33:28;14.60;99.90
18446;DHT22;9352;50.888;4.466;2023-02-15T14:35:56;14.60;99.90
18446;DHT22;9352;50.888;4.466;2023-02-15T14:38:44;14.50;99.90
18446;DHT22;9352;50.888;4.466;2023-02-15T14:41:19;14.40;99.90
18446;DHT22;9352;50.888;4.466;2023-02-15T14:43:52;14.30;99.90
18446;DHT22;9352;50.888;4.466;2023-02-15T14:46:27;14.40;99.90
18446;DHT22;9352;50.888;4.466;2023-02-15T14:48:57;14.40;99.90
18446;DHT22;9352;50.888;4.466;2023-02-15T14:51:59;14.30;99.90
18446;DHT22;9352;50.888;4.466;2023-02-15T14:54:58;14.30;99.90
18446;DHT22;9352;50.888;4.466;2023-02-15T14:57:32;14.30;99.90
18446;DHT22;9352;50.888;4.466;2023-02-15T15:00:00;14.30;99.90
18446;DHT22;9352;50.888;4.466;2023-02-15T15:02:43;14.20;99.90
18446;DHT22;9352;50.888;4.466;2023-02-15T15:05:17;14.30;99.90
18446;DHT22;9352;50.888;4.466;2023-02-15T15:07:46;14.30;99.90
18446;DHT22;9352;50.888;4.466;2023-02-15T15:10:40;14.20;99.90
18446;DHT22;9352;50.888;4.466;2023-02-15T15:13:40;14.00;99.90
18446;DHT22;9352;50.888;4.466;2023-02-15T15:16:28;13.90;99.90
18446;DHT22;9352;50.888;4.466;2023-02-15T15:18:56;13.90;99.90
18446;DHT22;9352;50.888;4.466;2023-02-15T15:21:51;13.90;99.90
18446;DHT22;9352;50.888;4.466;2023-02-15T15:24:46;13.80;99.90
18446;DHT22;9352;50.888;4.466;2023-02-15T15:27:45;13.80;99.90
18446;DHT22;9352;50.888;4.466;2023-02-15T15:42:31;13.80;99.90
18446;DHT22;9352;50.888;4.466;2023-02-15T15:45:18;13.80;99.90
18446;DHT22;9352;50.888;4.466;2023-02-15T15:48:12;13.80;99.90
18446;DHT22;9352;50.888;4.466;2023-02-15T15:50:42;13.60;99.90
18446;DHT22;9352;50.888;4.466;2023-02-15T15:53:18;13.40;99.90
18446;DHT22;9352;50.888;4.466;2023-02-15T15:55:47;13.40;99.90
18446;DHT22;9352;50.888;4.466;2023-02-15T15:58:18;13.30;99.90
18446;DHT22;9352;50.888;4.466;2023-02-15T16:00:47;13.20;99.90
18446;DHT22;9352;50.888;4.466;2023-02-15T16:03:20;13.00;99.90
18446;DHT22;9352;50.888;4.466;2023-02-15T16:05:47;12.90;99.90
18446;DHT22;9352;50.888;4.466;2023-02-15T16:08:26;12.80;99.90
18446;DHT22;9352;50.888;4.466;2023-02-15T16:10:53;12.70;99.90
18446;DHT22;9352;50.888;4.466;2023-02-15T16:13:22;12.60;99.90
18446;DHT22;9352;50.888;4.466;2023-02-15T16:15:52;12.50;99.90
18446;DHT22;9352;50.888;4.466;2023-02-15T16:18:22;12.40;99.90
18446;DHT22;9352;50.888;4.466;2023-02-15T16:20:52;12.30;99.90
18446;DHT22;9352;50.888;4.466;2023-02-15T16:23:45;12.20;99.90
18446;DHT22;9352;50.888;4.466;2023-02-15T16:26:24;12.10;99.90
18446;DHT22;9352;50.888;4.466;2023-02-15T16:28:58;12.00;99.90
18446;DHT22;9352;50.888;4.466;2023-02-15T16:31:26;11.90;99.90
18446;DHT22;9352;50.888;4.466;2023-02-15T16:33:54;11.80;99.90
18446;DHT22;9352;50.888;4.466;2023-02-15T16:36:23;11.70;99.90
18446;DHT22;9352;50.888;4.466;2023-02-15T16:39:12;11.70;99.90
18446;DHT22;9352;50.888;4.466;2023-02-15T16:41:43;11.60;99.90
18446;DHT22;9352;50.888;4.466;2023-02-15T16:44:16;11.50;99.90
18446;DHT22;9352;50.888;4.466;2023-02-15T16:46:47;11.40;99.90
18446;DHT22;9352;50.888;4.466;2023-02-15T16:49:17;11.30;99.90